Mobile Downtown Airport Mobile US
ICAO: KBFM
IATA: BFM
Category: Medium
Scheduled Services: No

Elevation: 26 ft
TransAlt. 18000 ft.

Airport Communications:
APP/DEP:118.5
ATIS:135.575
CTAF:118.8
GND:121.7
ANNISTON RDO:112.8
DOWNTOWN TWR:118.8
UNICOM:122.95

KBFM Zoom In..

If Map Doesn't Load, Click Here

Runways:

(A) RW 14 length 9618 ft width 150 ft
---- / hdg 140

(B) RW 18 length 7800 ft width 150 ft
---- / hdg 181

(C) RW 32 length 9618 ft width 150 ft
ILS 108.50 / hdg 320

(D) RW 36 length 7800 ft width 150 ft
---- / hdg 1

Location; KBFM
Day. 21 / Time. 13.53 Zulu
* Altimeter: 30.10
* Temperature: 29° c. 84.2°f.
* Wind from: 030° Speed 05 kn.
Dewpoint: 26° c.
Visibility: 10 Statute Miles.
Clouds: Few 1500 ft.

KBFM 211353Z 03005KT 10SM FEW015 29/26 A3010 RMK AO2 SLP192 T02940261


Wind From 030°
Speed 05 kn.

 
 
jpsmedia.com for Web Design worldairports.se 2018   terms of use